Главная страница
METAR-TAF:

METAR-TAF

Аэропорты :

Пори, Финляндия

широта: 61-28N, долгота: 021-48E, высота над уровнем моря: 13 м

Текущие метеонаблюдения

Эта сводка был подготовлена 24 минут назад, в 16:20 UTC
Ветер 7 Узел от западно-северо-западный
Температура 19°C
Влажность 52%
Давление 1010 hPa
Видимость 10 км и более
Нет облачности ниже 1500 м, и нет кучево-дождевой облачности

METAR: EFPO 221620Z AUTO 29007KT CAVOK 19/09 Q1010

Время: 19:44 (16:44 UTC)


TAF: отсутствует

Метеонаблюдения и прогнозы для более 4000 аэропортов (сводки METAR и TAF).

Имеющиеся станции представлены на карте желтыми и красными точками.

Чтобы увидеть название станции, наведите на нее мышь.

Затем щелкните, чтобы увидеть метеонаблюдения и метеопрогнозы.

Управление картой: чтобы увеличить масштаб, щелкните зеленые кнопки с черным крестиком; чтобы уменьшить масштаб, щелкните зеленую кнопку с тире; для просмотра соседних карт щелкайте зеленые стрелки.


METAR-TAF: